< < Back
Terminal Aerodrome Forecast


Current Version              Previous Versions:   1  2  3  4  5  6  7  8  9  

Terminal Aerodrome Forecast

061
FTUS42 KFFC 281401 AAA
TAFMCN
TAF AMD
KMCN 281401Z 2814/2912 04003KT P6SM SCT040
     FM290100 00000KT P6SM SCT120=

Latest METAR

273
SAUS80 KWBC 281700
MTRMCN
METAR KMCN 281653Z VRB04KT 10SM FEW049 34/22 A2999 RMK AO2 SLP148
T03440222


USA.gov is the U.S. government's official web portal to all federal, state and local government web resources and services.